sensor_id;sensor_type;location;lat;lon;timestamp;P1;durP1;ratioP1;P2;durP2;ratioP2
9102;SDS011;4587;51.434;6.788;2023-04-10T00:02:15;6.80;;;6.13;;
9102;SDS011;4587;51.434;6.788;2023-04-10T00:04:41;6.90;;;6.30;;
9102;SDS011;4587;51.434;6.788;2023-04-10T00:07:07;6.97;;;6.27;;
9102;SDS011;4587;51.434;6.788;2023-04-10T00:09:32;7.13;;;6.23;;
9102;SDS011;4587;51.434;6.788;2023-04-10T00:11:58;7.40;;;6.70;;
9102;SDS011;4587;51.434;6.788;2023-04-10T00:14:24;6.40;;;5.80;;
9102;SDS011;4587;51.434;6.788;2023-04-10T00:16:50;7.33;;;6.53;;
9102;SDS011;4587;51.434;6.788;2023-04-10T00:19:16;6.77;;;6.03;;
9102;SDS011;4587;51.434;6.788;2023-04-10T00:21:42;7.83;;;6.90;;
9102;SDS011;4587;51.434;6.788;2023-04-10T00:24:07;7.37;;;6.67;;
9102;SDS011;4587;51.434;6.788;2023-04-10T00:26:36;7.40;;;6.60;;
9102;SDS011;4587;51.434;6.788;2023-04-10T00:29:02;7.20;;;6.50;;
9102;SDS011;4587;51.434;6.788;2023-04-10T00:31:28;8.03;;;6.83;;
9102;SDS011;4587;51.434;6.788;2023-04-10T00:33:54;7.17;;;6.47;;
9102;SDS011;4587;51.434;6.788;2023-04-10T00:36:20;7.47;;;6.77;;
9102;SDS011;4587;51.434;6.788;2023-04-10T00:38:47;7.23;;;6.50;;
9102;SDS011;4587;51.434;6.788;2023-04-10T00:41:13;6.93;;;6.27;;
9102;SDS011;4587;51.434;6.788;2023-04-10T00:43:40;7.63;;;6.57;;
9102;SDS011;4587;51.434;6.788;2023-04-10T00:46:05;7.30;;;6.60;;
9102;SDS011;4587;51.434;6.788;2023-04-10T00:48:31;7.10;;;6.40;;
9102;SDS011;4587;51.434;6.788;2023-04-10T00:50:58;7.03;;;6.37;;
9102;SDS011;4587;51.434;6.788;2023-04-10T00:53:25;7.20;;;6.50;;
9102;SDS011;4587;51.434;6.788;2023-04-10T00:55:50;7.53;;;6.77;;
9102;SDS011;4587;51.434;6.788;2023-04-10T00:58:17;7.37;;;6.63;;
9102;SDS011;4587;51.434;6.788;2023-04-10T01:00:42;7.73;;;7.03;;
9102;SDS011;4587;51.434;6.788;2023-04-10T01:03:08;6.93;;;6.23;;
9102;SDS011;4587;51.434;6.788;2023-04-10T01:05:46;6.83;;;6.23;;
9102;SDS011;4587;51.434;6.788;2023-04-10T01:11:17;8.07;;;7.27;;
9102;SDS011;4587;51.434;6.788;2023-04-10T01:13:48;7.53;;;6.83;;
9102;SDS011;4587;51.434;6.788;2023-04-10T01:16:35;8.00;;;7.20;;
9102;SDS011;4587;51.434;6.788;2023-04-10T01:22:03;7.63;;;6.83;;
9102;SDS011;4587;51.434;6.788;2023-04-10T01:24:49;7.00;;;6.30;;
9102;SDS011;4587;51.434;6.788;2023-04-10T01:29:58;8.23;;;7.10;;
9102;SDS011;4587;51.434;6.788;2023-04-10T01:32:26;7.20;;;6.50;;
9102;SDS011;4587;51.434;6.788;2023-04-10T01:34:54;7.50;;;6.80;;
9102;SDS011;4587;51.434;6.788;2023-04-10T01:37:29;7.87;;;7.10;;
9102;SDS011;4587;51.434;6.788;2023-04-10T01:40:04;7.67;;;6.97;;
9102;SDS011;4587;51.434;6.788;2023-04-10T01:42:34;8.30;;;6.70;;
9102;SDS011;4587;51.434;6.788;2023-04-10T01:45:05;7.53;;;6.83;;
9102;SDS011;4587;51.434;6.788;2023-04-10T01:47:33;7.50;;;6.80;;
9102;SDS011;4587;51.434;6.788;2023-04-10T01:49:59;7.47;;;6.77;;
9102;SDS011;4587;51.434;6.788;2023-04-10T01:52:26;7.10;;;6.40;;
9102;SDS011;4587;51.434;6.788;2023-04-10T01:54:52;6.87;;;6.27;;
9102;SDS011;4587;51.434;6.788;2023-04-10T01:57:18;7.63;;;6.70;;
9102;SDS011;4587;51.434;6.788;2023-04-10T01:59:45;7.63;;;6.83;;
9102;SDS011;4587;51.434;6.788;2023-04-10T02:02:11;8.33;;;7.00;;
9102;SDS011;4587;51.434;6.788;2023-04-10T02:04:37;7.57;;;6.77;;
9102;SDS011;4587;51.434;6.788;2023-04-10T02:07:03;7.97;;;7.00;;
9102;SDS011;4587;51.434;6.788;2023-04-10T02:12:28;7.30;;;6.60;;
9102;SDS011;4587;51.434;6.788;2023-04-10T02:14:57;7.77;;;6.97;;
9102;SDS011;4587;51.434;6.788;2023-04-10T02:17:26;7.47;;;6.77;;
9102;SDS011;4587;51.434;6.788;2023-04-10T02:19:54;7.03;;;6.37;;
9102;SDS011;4587;51.434;6.788;2023-04-10T02:22:21;7.70;;;6.90;;
9102;SDS011;4587;51.434;6.788;2023-04-10T02:24:49;8.20;;;7.40;;
9102;SDS011;4587;51.434;6.788;2023-04-10T02:27:25;7.97;;;7.17;;
9102;SDS011;4587;51.434;6.788;2023-04-10T02:29:55;7.33;;;6.20;;
9102;SDS011;4587;51.434;6.788;2023-04-10T02:32:21;8.13;;;7.13;;
9102;SDS011;4587;51.434;6.788;2023-04-10T02:34:47;8.83;;;7.50;;
9102;SDS011;4587;51.434;6.788;2023-04-10T02:37:13;8.20;;;7.40;;
9102;SDS011;4587;51.434;6.788;2023-04-10T02:39:38;7.77;;;7.07;;
9102;SDS011;4587;51.434;6.788;2023-04-10T02:42:04;8.40;;;7.60;;
9102;SDS011;4587;51.434;6.788;2023-04-10T02:44:30;8.23;;;7.30;;
9102;SDS011;4587;51.434;6.788;2023-04-10T02:46:55;7.83;;;7.03;;
9102;SDS011;4587;51.434;6.788;2023-04-10T02:49:21;8.50;;;7.20;;
9102;SDS011;4587;51.434;6.788;2023-04-10T02:51:47;8.50;;;7.70;;
9102;SDS011;4587;51.434;6.788;2023-04-10T02:54:12;7.93;;;7.13;;
9102;SDS011;4587;51.434;6.788;2023-04-10T02:56:38;9.27;;;7.37;;
9102;SDS011;4587;51.434;6.788;2023-04-10T02:59:03;8.93;;;7.53;;
9102;SDS011;4587;51.434;6.788;2023-04-10T03:01:29;8.17;;;7.30;;
9102;SDS011;4587;51.434;6.788;2023-04-10T03:03:56;8.33;;;7.53;;
9102;SDS011;4587;51.434;6.788;2023-04-10T03:06:22;8.60;;;7.77;;
9102;SDS011;4587;51.434;6.788;2023-04-10T03:08:51;7.83;;;7.13;;
9102;SDS011;4587;51.434;6.788;2023-04-10T03:11:17;8.50;;;7.57;;
9102;SDS011;4587;51.434;6.788;2023-04-10T03:13:42;7.77;;;6.97;;
9102;SDS011;4587;51.434;6.788;2023-04-10T03:16:08;8.50;;;7.60;;
9102;SDS011;4587;51.434;6.788;2023-04-10T03:18:33;8.20;;;7.40;;
9102;SDS011;4587;51.434;6.788;2023-04-10T03:20:59;8.00;;;7.20;;
9102;SDS011;4587;51.434;6.788;2023-04-10T03:23:26;8.03;;;7.23;;
9102;SDS011;4587;51.434;6.788;2023-04-10T03:25:52;9.07;;;7.80;;
9102;SDS011;4587;51.434;6.788;2023-04-10T03:28:18;8.93;;;7.37;;
9102;SDS011;4587;51.434;6.788;2023-04-10T03:30:45;7.90;;;7.10;;
9102;SDS011;4587;51.434;6.788;2023-04-10T03:33:13;8.20;;;7.40;;
9102;SDS011;4587;51.434;6.788;2023-04-10T03:35:39;10.43;;;7.23;;
9102;SDS011;4587;51.434;6.788;2023-04-10T03:38:06;7.77;;;6.93;;
9102;SDS011;4587;51.434;6.788;2023-04-10T03:40:31;8.00;;;6.83;;
9102;SDS011;4587;51.434;6.788;2023-04-10T03:42:58;7.63;;;6.93;;
9102;SDS011;4587;51.434;6.788;2023-04-10T03:45:24;7.40;;;6.70;;
9102;SDS011;4587;51.434;6.788;2023-04-10T03:47:50;7.40;;;6.57;;
9102;SDS011;4587;51.434;6.788;2023-04-10T03:50:16;8.30;;;7.33;;
9102;SDS011;4587;51.434;6.788;2023-04-10T03:52:42;7.80;;;7.00;;
9102;SDS011;4587;51.434;6.788;2023-04-10T03:55:08;7.27;;;6.57;;
9102;SDS011;4587;51.434;6.788;2023-04-10T03:57:34;8.00;;;6.90;;
9102;SDS011;4587;51.434;6.788;2023-04-10T04:00:00;7.50;;;6.70;;
9102;SDS011;4587;51.434;6.788;2023-04-10T04:02:26;7.37;;;6.63;;
9102;SDS011;4587;51.434;6.788;2023-04-10T04:04:52;7.70;;;6.83;;
9102;SDS011;4587;51.434;6.788;2023-04-10T04:07:18;7.10;;;6.40;;
9102;SDS011;4587;51.434;6.788;2023-04-10T04:09:43;7.33;;;6.60;;
9102;SDS011;4587;51.434;6.788;2023-04-10T04:12:09;7.60;;;6.53;;
9102;SDS011;4587;51.434;6.788;2023-04-10T04:14:35;7.10;;;6.40;;
9102;SDS011;4587;51.434;6.788;2023-04-10T04:17:00;7.23;;;6.53;;
9102;SDS011;4587;51.434;6.788;2023-04-10T04:19:26;6.70;;;6.00;;
9102;SDS011;4587;51.434;6.788;2023-04-10T04:21:52;7.60;;;6.13;;
9102;SDS011;4587;51.434;6.788;2023-04-10T04:24:18;7.23;;;6.53;;
9102;SDS011;4587;51.434;6.788;2023-04-10T04:26:43;7.40;;;6.70;;
9102;SDS011;4587;51.434;6.788;2023-04-10T04:29:09;6.73;;;6.10;;
9102;SDS011;4587;51.434;6.788;2023-04-10T04:31:35;7.00;;;6.30;;
9102;SDS011;4587;51.434;6.788;2023-04-10T04:34:00;9.93;;;7.17;;
9102;SDS011;4587;51.434;6.788;2023-04-10T04:36:26;6.67;;;6.07;;
9102;SDS011;4587;51.434;6.788;2023-04-10T04:38:53;7.67;;;6.30;;
9102;SDS011;4587;51.434;6.788;2023-04-10T04:41:19;7.27;;;6.57;;
9102;SDS011;4587;51.434;6.788;2023-04-10T04:43:44;7.10;;;6.40;;
9102;SDS011;4587;51.434;6.788;2023-04-10T04:46:11;7.17;;;6.47;;
9102;SDS011;4587;51.434;6.788;2023-04-10T04:48:37;7.13;;;6.43;;
9102;SDS011;4587;51.434;6.788;2023-04-10T04:51:05;7.07;;;6.37;;
9102;SDS011;4587;51.434;6.788;2023-04-10T04:53:31;7.73;;;6.93;;
9102;SDS011;4587;51.434;6.788;2023-04-10T04:55:56;8.63;;;7.27;;
9102;SDS011;4587;51.434;6.788;2023-04-10T04:58:22;7.27;;;6.40;;
9102;SDS011;4587;51.434;6.788;2023-04-10T05:00:50;6.97;;;6.27;;
9102;SDS011;4587;51.434;6.788;2023-04-10T05:03:16;7.27;;;6.57;;
9102;SDS011;4587;51.434;6.788;2023-04-10T05:05:41;7.03;;;6.10;;
9102;SDS011;4587;51.434;6.788;2023-04-10T05:08:07;7.07;;;6.40;;
9102;SDS011;4587;51.434;6.788;2023-04-10T05:10:33;7.60;;;6.80;;
9102;SDS011;4587;51.434;6.788;2023-04-10T05:12:59;7.77;;;6.97;;
9102;SDS011;4587;51.434;6.788;2023-04-10T05:15:28;7.33;;;6.57;;
9102;SDS011;4587;51.434;6.788;2023-04-10T05:17:53;7.63;;;6.93;;
9102;SDS011;4587;51.434;6.788;2023-04-10T05:20:19;7.43;;;6.73;;
9102;SDS011;4587;51.434;6.788;2023-04-10T05:22:46;7.37;;;6.37;;
9102;SDS011;4587;51.434;6.788;2023-04-10T05:25:11;7.80;;;7.10;;
9102;SDS011;4587;51.434;6.788;2023-04-10T05:27:37;7.63;;;6.83;;
9102;SDS011;4587;51.434;6.788;2023-04-10T05:30:03;7.30;;;6.60;;
9102;SDS011;4587;51.434;6.788;2023-04-10T05:32:29;7.70;;;6.90;;
9102;SDS011;4587;51.434;6.788;2023-04-10T05:34:55;8.27;;;7.30;;
9102;SDS011;4587;51.434;6.788;2023-04-10T05:37:24;8.30;;;7.50;;
9102;SDS011;4587;51.434;6.788;2023-04-10T05:39:49;7.70;;;7.00;;
9102;SDS011;4587;51.434;6.788;2023-04-10T05:42:15;8.03;;;7.30;;
9102;SDS011;4587;51.434;6.788;2023-04-10T05:44:41;7.30;;;6.60;;
9102;SDS011;4587;51.434;6.788;2023-04-10T05:47:06;7.80;;;7.10;;
9102;SDS011;4587;51.434;6.788;2023-04-10T05:49:32;7.37;;;6.67;;
9102;SDS011;4587;51.434;6.788;2023-04-10T05:51:58;8.83;;;7.20;;
9102;SDS011;4587;51.434;6.788;2023-04-10T05:54:23;8.63;;;7.73;;
9102;SDS011;4587;51.434;6.788;2023-04-10T05:56:49;7.83;;;7.03;;
9102;SDS011;4587;51.434;6.788;2023-04-10T05:59:18;8.10;;;7.30;;
9102;SDS011;4587;51.434;6.788;2023-04-10T06:01:43;7.30;;;6.60;;
9102;SDS011;4587;51.434;6.788;2023-04-10T06:04:11;8.10;;;7.17;;
9102;SDS011;4587;51.434;6.788;2023-04-10T06:06:37;8.43;;;7.00;;
9102;SDS011;4587;51.434;6.788;2023-04-10T06:09:03;7.63;;;6.83;;
9102;SDS011;4587;51.434;6.788;2023-04-10T06:11:28;7.40;;;6.70;;
9102;SDS011;4587;51.434;6.788;2023-04-10T06:13:54;7.23;;;6.63;;
9102;SDS011;4587;51.434;6.788;2023-04-10T06:16:20;7.33;;;6.63;;
9102;SDS011;4587;51.434;6.788;2023-04-10T06:18:46;8.23;;;6.70;;
9102;SDS011;4587;51.434;6.788;2023-04-10T06:21:11;7.00;;;6.33;;
9102;SDS011;4587;51.434;6.788;2023-04-10T06:23:37;7.27;;;6.57;;
9102;SDS011;4587;51.434;6.788;2023-04-10T06:26:03;7.80;;;6.33;;
9102;SDS011;4587;51.434;6.788;2023-04-10T06:28:29;6.53;;;5.93;;
9102;SDS011;4587;51.434;6.788;2023-04-10T06:30:54;7.23;;;6.53;;
9102;SDS011;4587;51.434;6.788;2023-04-10T06:33:21;6.80;;;6.20;;
9102;SDS011;4587;51.434;6.788;2023-04-10T06:35:47;6.67;;;6.07;;
9102;SDS011;4587;51.434;6.788;2023-04-10T06:38:12;7.07;;;6.40;;
9102;SDS011;4587;51.434;6.788;2023-04-10T06:40:39;7.20;;;6.50;;
9102;SDS011;4587;51.434;6.788;2023-04-10T06:43:05;6.63;;;6.03;;
9102;SDS011;4587;51.434;6.788;2023-04-10T06:45:31;6.57;;;5.97;;
9102;SDS011;4587;51.434;6.788;2023-04-10T06:47:56;6.43;;;5.83;;
9102;SDS011;4587;51.434;6.788;2023-04-10T06:50:22;6.33;;;5.83;;
9102;SDS011;4587;51.434;6.788;2023-04-10T06:52:48;6.53;;;5.93;;
9102;SDS011;4587;51.434;6.788;2023-04-10T06:55:14;6.10;;;5.60;;
9102;SDS011;4587;51.434;6.788;2023-04-10T06:57:39;6.60;;;5.90;;
9102;SDS011;4587;51.434;6.788;2023-04-10T07:00:06;6.20;;;5.60;;
9102;SDS011;4587;51.434;6.788;2023-04-10T07:02:33;6.20;;;5.60;;
9102;SDS011;4587;51.434;6.788;2023-04-10T07:04:59;6.43;;;5.73;;
9102;SDS011;4587;51.434;6.788;2023-04-10T07:07:25;6.10;;;5.60;;
9102;SDS011;4587;51.434;6.788;2023-04-10T07:09:52;5.87;;;5.37;;
9102;SDS011;4587;51.434;6.788;2023-04-10T07:12:18;6.20;;;5.40;;
9102;SDS011;4587;51.434;6.788;2023-04-10T07:14:44;5.37;;;4.87;;
9102;SDS011;4587;51.434;6.788;2023-04-10T07:17:09;6.70;;;5.63;;
9102;SDS011;4587;51.434;6.788;2023-04-10T07:19:38;6.17;;;5.50;;
9102;SDS011;4587;51.434;6.788;2023-04-10T07:22:04;6.53;;;5.40;;
9102;SDS011;4587;51.434;6.788;2023-04-10T07:24:31;6.13;;;5.53;;
9102;SDS011;4587;51.434;6.788;2023-04-10T07:26:56;6.50;;;5.90;;
9102;SDS011;4587;51.434;6.788;2023-04-10T07:29:22;6.00;;;5.50;;
9102;SDS011;4587;51.434;6.788;2023-04-10T07:31:48;6.50;;;5.83;;
9102;SDS011;4587;51.434;6.788;2023-04-10T07:34:14;6.00;;;5.50;;
9102;SDS011;4587;51.434;6.788;2023-04-10T07:36:43;5.93;;;5.33;;
9102;SDS011;4587;51.434;6.788;2023-04-10T07:39:08;5.83;;;5.30;;
9102;SDS011;4587;51.434;6.788;2023-04-10T07:41:34;6.50;;;5.80;;
9102;SDS011;4587;51.434;6.788;2023-04-10T07:44:00;5.50;;;5.00;;
9102;SDS011;4587;51.434;6.788;2023-04-10T07:46:26;6.37;;;5.77;;
9102;SDS011;4587;51.434;6.788;2023-04-10T07:48:52;6.63;;;6.03;;
9102;SDS011;4587;51.434;6.788;2023-04-10T07:51:19;6.60;;;5.90;;
9102;SDS011;4587;51.434;6.788;2023-04-10T07:53:45;6.07;;;5.47;;
9102;SDS011;4587;51.434;6.788;2023-04-10T07:56:15;6.03;;;5.43;;
9102;SDS011;4587;51.434;6.788;2023-04-10T07:58:41;6.10;;;5.60;;
9102;SDS011;4587;51.434;6.788;2023-04-10T08:01:07;5.50;;;5.00;;
9102;SDS011;4587;51.434;6.788;2023-04-10T08:03:43;5.70;;;5.20;;
9102;SDS011;4587;51.434;6.788;2023-04-10T08:06:09;5.30;;;4.80;;
9102;SDS011;4587;51.434;6.788;2023-04-10T08:08:36;5.97;;;5.47;;
9102;SDS011;4587;51.434;6.788;2023-04-10T08:11:07;5.63;;;5.07;;
9102;SDS011;4587;51.434;6.788;2023-04-10T08:13:47;5.67;;;5.17;;
9102;SDS011;4587;51.434;6.788;2023-04-10T08:16:13;5.90;;;4.63;;
9102;SDS011;4587;51.434;6.788;2023-04-10T08:18:38;5.80;;;5.30;;
9102;SDS011;4587;51.434;6.788;2023-04-10T08:21:04;5.80;;;4.97;;
9102;SDS011;4587;51.434;6.788;2023-04-10T08:23:30;5.70;;;5.20;;
9102;SDS011;4587;51.434;6.788;2023-04-10T08:25:56;5.13;;;4.63;;
9102;SDS011;4587;51.434;6.788;2023-04-10T08:28:22;5.37;;;4.87;;
9102;SDS011;4587;51.434;6.788;2023-04-10T08:30:50;6.07;;;4.97;;
9102;SDS011;4587;51.434;6.788;2023-04-10T08:33:21;5.73;;;5.23;;
9102;SDS011;4587;51.434;6.788;2023-04-10T08:35:46;6.50;;;4.60;;
9102;SDS011;4587;51.434;6.788;2023-04-10T08:38:16;5.20;;;4.70;;
9102;SDS011;4587;51.434;6.788;2023-04-10T08:40:44;5.20;;;4.70;;
9102;SDS011;4587;51.434;6.788;2023-04-10T08:43:10;5.80;;;4.87;;
9102;SDS011;4587;51.434;6.788;2023-04-10T08:45:36;5.37;;;4.90;;
9102;SDS011;4587;51.434;6.788;2023-04-10T08:48:04;5.03;;;4.63;;
9102;SDS011;4587;51.434;6.788;2023-04-10T08:50:32;6.50;;;5.00;;
9102;SDS011;4587;51.434;6.788;2023-04-10T08:53:04;5.23;;;4.60;;
9102;SDS011;4587;51.434;6.788;2023-04-10T08:55:34;5.17;;;4.67;;
9102;SDS011;4587;51.434;6.788;2023-04-10T08:58:01;5.10;;;4.60;;
9102;SDS011;4587;51.434;6.788;2023-04-10T09:00:28;4.43;;;4.03;;
9102;SDS011;4587;51.434;6.788;2023-04-10T09:02:58;4.67;;;4.27;;
9102;SDS011;4587;51.434;6.788;2023-04-10T09:05:25;4.83;;;4.43;;
9102;SDS011;4587;51.434;6.788;2023-04-10T09:07:52;4.93;;;4.40;;
9102;SDS011;4587;51.434;6.788;2023-04-10T09:10:17;5.13;;;4.70;;
9102;SDS011;4587;51.434;6.788;2023-04-10T09:12:46;4.60;;;4.20;;
9102;SDS011;4587;51.434;6.788;2023-04-10T09:15:19;4.63;;;4.23;;
9102;SDS011;4587;51.434;6.788;2023-04-10T09:20:27;5.00;;;4.53;;
9102;SDS011;4587;51.434;6.788;2023-04-10T09:22:54;4.80;;;4.40;;
9102;SDS011;4587;51.434;6.788;2023-04-10T09:25:27;4.40;;;4.00;;
9102;SDS011;4587;51.434;6.788;2023-04-10T09:28:10;4.67;;;4.27;;
9102;SDS011;4587;51.434;6.788;2023-04-10T09:30:44;4.77;;;4.37;;
9102;SDS011;4587;51.434;6.788;2023-04-10T09:33:26;4.10;;;3.80;;
9102;SDS011;4587;51.434;6.788;2023-04-10T09:35:53;4.37;;;3.97;;
9102;SDS011;4587;51.434;6.788;2023-04-10T09:38:21;4.17;;;3.77;;
9102;SDS011;4587;51.434;6.788;2023-04-10T09:40:47;4.03;;;3.73;;
9102;SDS011;4587;51.434;6.788;2023-04-10T09:43:19;4.40;;;4.00;;
9102;SDS011;4587;51.434;6.788;2023-04-10T09:45:53;3.87;;;3.57;;
9102;SDS011;4587;51.434;6.788;2023-04-10T09:48:21;4.23;;;3.83;;
9102;SDS011;4587;51.434;6.788;2023-04-10T09:50:48;3.70;;;3.40;;
9102;SDS011;4587;51.434;6.788;2023-04-10T09:53:14;3.90;;;3.60;;
9102;SDS011;4587;51.434;6.788;2023-04-10T09:55:43;4.27;;;3.67;;
9102;SDS011;4587;51.434;6.788;2023-04-10T09:58:10;3.90;;;3.60;;
9102;SDS011;4587;51.434;6.788;2023-04-10T10:00:55;3.83;;;3.53;;
9102;SDS011;4587;51.434;6.788;2023-04-10T10:03:20;3.97;;;3.50;;
9102;SDS011;4587;51.434;6.788;2023-04-10T10:05:47;4.53;;;3.67;;
9102;SDS011;4587;51.434;6.788;2023-04-10T10:08:15;4.30;;;3.50;;
9102;SDS011;4587;51.434;6.788;2023-04-10T10:10:45;4.30;;;3.50;;
9102;SDS011;4587;51.434;6.788;2023-04-10T10:13:14;3.80;;;3.50;;
9102;SDS011;4587;51.434;6.788;2023-04-10T10:21:00;3.57;;;3.27;;
9102;SDS011;4587;51.434;6.788;2023-04-10T10:23:27;3.53;;;3.23;;
9102;SDS011;4587;51.434;6.788;2023-04-10T10:25:55;5.23;;;3.20;;
9102;SDS011;4587;51.434;6.788;2023-04-10T10:28:23;3.50;;;3.20;;
9102;SDS011;4587;51.434;6.788;2023-04-10T10:30:51;3.80;;;3.50;;
9102;SDS011;4587;51.434;6.788;2023-04-10T10:33:18;3.70;;;3.23;;
9102;SDS011;4587;51.434;6.788;2023-04-10T10:35:44;3.43;;;3.13;;
9102;SDS011;4587;51.434;6.788;2023-04-10T10:38:10;3.50;;;3.10;;
9102;SDS011;4587;51.434;6.788;2023-04-10T10:46:27;3.37;;;3.07;;
9102;SDS011;4587;51.434;6.788;2023-04-10T10:49:02;5.17;;;3.27;;
9102;SDS011;4587;51.434;6.788;2023-04-10T10:54:32;3.83;;;3.43;;
9102;SDS011;4587;51.434;6.788;2023-04-10T10:56:59;3.20;;;3.00;;
9102;SDS011;4587;51.434;6.788;2023-04-10T11:02:24;3.67;;;3.37;;
9102;SDS011;4587;51.434;6.788;2023-04-10T11:04:51;3.50;;;3.00;;
9102;SDS011;4587;51.434;6.788;2023-04-10T11:07:16;3.07;;;2.77;;
9102;SDS011;4587;51.434;6.788;2023-04-10T11:09:43;2.97;;;2.77;;
9102;SDS011;4587;51.434;6.788;2023-04-10T11:12:13;3.23;;;2.93;;
9102;SDS011;4587;51.434;6.788;2023-04-10T11:14:40;3.37;;;3.07;;
9102;SDS011;4587;51.434;6.788;2023-04-10T11:17:08;3.20;;;2.90;;
9102;SDS011;4587;51.434;6.788;2023-04-10T11:22:25;3.40;;;2.77;;
9102;SDS011;4587;51.434;6.788;2023-04-10T11:24:52;2.87;;;2.67;;
9102;SDS011;4587;51.434;6.788;2023-04-10T11:32:52;2.90;;;2.70;;
9102;SDS011;4587;51.434;6.788;2023-04-10T11:35:18;3.33;;;3.00;;
9102;SDS011;4587;51.434;6.788;2023-04-10T11:37:44;3.30;;;3.00;;
9102;SDS011;4587;51.434;6.788;2023-04-10T11:40:10;3.10;;;2.80;;
9102;SDS011;4587;51.434;6.788;2023-04-10T11:42:36;2.93;;;2.73;;
9102;SDS011;4587;51.434;6.788;2023-04-10T11:45:24;3.40;;;3.10;;
9102;SDS011;4587;51.434;6.788;2023-04-10T11:47:51;2.93;;;2.73;;
9102;SDS011;4587;51.434;6.788;2023-04-10T11:50:18;3.43;;;2.87;;
9102;SDS011;4587;51.434;6.788;2023-04-10T11:52:46;2.70;;;2.50;;
9102;SDS011;4587;51.434;6.788;2023-04-10T11:55:15;2.87;;;2.67;;
9102;SDS011;4587;51.434;6.788;2023-04-10T11:57:41;2.80;;;2.60;;
9102;SDS011;4587;51.434;6.788;2023-04-10T12:00:08;2.83;;;2.63;;
9102;SDS011;4587;51.434;6.788;2023-04-10T12:02:34;3.80;;;3.03;;
9102;SDS011;4587;51.434;6.788;2023-04-10T12:05:12;3.07;;;2.83;;
9102;SDS011;4587;51.434;6.788;2023-04-10T12:07:38;2.70;;;2.50;;
9102;SDS011;4587;51.434;6.788;2023-04-10T12:10:03;3.27;;;2.97;;
9102;SDS011;4587;51.434;6.788;2023-04-10T12:12:36;3.10;;;2.80;;
9102;SDS011;4587;51.434;6.788;2023-04-10T12:15:02;2.83;;;2.63;;
9102;SDS011;4587;51.434;6.788;2023-04-10T12:17:47;3.23;;;2.93;;
9102;SDS011;4587;51.434;6.788;2023-04-10T12:20:13;2.67;;;2.47;;
9102;SDS011;4587;51.434;6.788;2023-04-10T12:22:40;2.70;;;2.50;;
9102;SDS011;4587;51.434;6.788;2023-04-10T12:25:09;3.20;;;2.87;;
9102;SDS011;4587;51.434;6.788;2023-04-10T12:27:36;3.00;;;2.80;;
9102;SDS011;4587;51.434;6.788;2023-04-10T12:30:05;3.10;;;2.80;;
9102;SDS011;4587;51.434;6.788;2023-04-10T12:32:38;2.60;;;2.40;;
9102;SDS011;4587;51.434;6.788;2023-04-10T12:35:18;3.23;;;2.70;;
9102;SDS011;4587;51.434;6.788;2023-04-10T12:40:13;3.10;;;2.80;;
9102;SDS011;4587;51.434;6.788;2023-04-10T12:42:39;2.87;;;2.67;;
9102;SDS011;4587;51.434;6.788;2023-04-10T12:45:09;3.87;;;2.80;;
9102;SDS011;4587;51.434;6.788;2023-04-10T12:50:12;2.80;;;2.60;;
9102;SDS011;4587;51.434;6.788;2023-04-10T12:52:43;2.80;;;2.60;;
9102;SDS011;4587;51.434;6.788;2023-04-10T12:57:40;2.63;;;2.43;;
9102;SDS011;4587;51.434;6.788;2023-04-10T13:00:09;3.90;;;2.70;;
9102;SDS011;4587;51.434;6.788;2023-04-10T13:02:36;2.97;;;2.67;;
9102;SDS011;4587;51.434;6.788;2023-04-10T13:05:08;3.30;;;2.70;;
9102;SDS011;4587;51.434;6.788;2023-04-10T13:07:35;3.93;;;2.80;;
9102;SDS011;4587;51.434;6.788;2023-04-10T13:10:02;3.10;;;2.60;;
9102;SDS011;4587;51.434;6.788;2023-04-10T13:12:31;2.70;;;2.50;;
9102;SDS011;4587;51.434;6.788;2023-04-10T13:14:59;2.80;;;2.60;;
9102;SDS011;4587;51.434;6.788;2023-04-10T13:17:25;2.90;;;2.70;;
9102;SDS011;4587;51.434;6.788;2023-04-10T13:19:54;3.00;;;2.70;;
9102;SDS011;4587;51.434;6.788;2023-04-10T13:22:20;2.83;;;2.63;;
9102;SDS011;4587;51.434;6.788;2023-04-10T13:24:45;4.07;;;2.77;;
9102;SDS011;4587;51.434;6.788;2023-04-10T13:27:11;3.10;;;2.90;;
9102;SDS011;4587;51.434;6.788;2023-04-10T13:29:40;4.37;;;2.90;;
9102;SDS011;4587;51.434;6.788;2023-04-10T13:32:06;3.10;;;2.80;;
9102;SDS011;4587;51.434;6.788;2023-04-10T13:34:32;3.00;;;2.70;;
9102;SDS011;4587;51.434;6.788;2023-04-10T13:36:58;3.40;;;3.00;;
9102;SDS011;4587;51.434;6.788;2023-04-10T13:39:25;2.70;;;2.50;;
9102;SDS011;4587;51.434;6.788;2023-04-10T13:41:58;3.57;;;2.90;;
9102;SDS011;4587;51.434;6.788;2023-04-10T13:44:23;3.73;;;2.87;;
9102;SDS011;4587;51.434;6.788;2023-04-10T13:46:49;3.00;;;2.43;;
9102;SDS011;4587;51.434;6.788;2023-04-10T13:49:16;2.90;;;2.50;;
9102;SDS011;4587;51.434;6.788;2023-04-10T13:51:43;2.77;;;2.57;;
9102;SDS011;4587;51.434;6.788;2023-04-10T13:54:09;2.63;;;2.43;;
9102;SDS011;4587;51.434;6.788;2023-04-10T13:56:35;3.63;;;2.73;;
9102;SDS011;4587;51.434;6.788;2023-04-10T13:59:01;2.57;;;2.37;;
9102;SDS011;4587;51.434;6.788;2023-04-10T14:01:27;2.57;;;2.37;;
9102;SDS011;4587;51.434;6.788;2023-04-10T14:03:52;2.90;;;2.60;;
9102;SDS011;4587;51.434;6.788;2023-04-10T14:06:19;2.90;;;2.70;;
9102;SDS011;4587;51.434;6.788;2023-04-10T14:08:44;3.07;;;2.77;;
9102;SDS011;4587;51.434;6.788;2023-04-10T14:11:10;2.80;;;2.60;;
9102;SDS011;4587;51.434;6.788;2023-04-10T14:13:36;4.00;;;3.60;;
9102;SDS011;4587;51.434;6.788;2023-04-10T14:16:01;2.90;;;2.70;;
9102;SDS011;4587;51.434;6.788;2023-04-10T14:18:28;3.20;;;2.80;;
9102;SDS011;4587;51.434;6.788;2023-04-10T14:20:53;2.40;;;2.20;;
9102;SDS011;4587;51.434;6.788;2023-04-10T14:23:19;2.70;;;2.20;;
9102;SDS011;4587;51.434;6.788;2023-04-10T14:25:46;2.70;;;2.10;;
9102;SDS011;4587;51.434;6.788;2023-04-10T14:28:14;2.00;;;1.80;;
9102;SDS011;4587;51.434;6.788;2023-04-10T14:30:43;3.97;;;2.30;;
9102;SDS011;4587;51.434;6.788;2023-04-10T14:33:12;2.30;;;2.10;;
9102;SDS011;4587;51.434;6.788;2023-04-10T14:35:38;2.27;;;2.07;;
9102;SDS011;4587;51.434;6.788;2023-04-10T14:38:04;2.67;;;2.00;;
9102;SDS011;4587;51.434;6.788;2023-04-10T14:40:30;1.90;;;1.80;;
9102;SDS011;4587;51.434;6.788;2023-04-10T14:42:56;2.87;;;1.90;;
9102;SDS011;4587;51.434;6.788;2023-04-10T14:45:21;1.80;;;1.70;;
9102;SDS011;4587;51.434;6.788;2023-04-10T14:47:50;3.73;;;1.87;;
9102;SDS011;4587;51.434;6.788;2023-04-10T14:50:17;2.47;;;1.90;;
9102;SDS011;4587;51.434;6.788;2023-04-10T14:52:43;2.03;;;1.93;;
9102;SDS011;4587;51.434;6.788;2023-04-10T14:55:08;2.20;;;2.00;;
9102;SDS011;4587;51.434;6.788;2023-04-10T14:57:34;2.10;;;2.00;;
9102;SDS011;4587;51.434;6.788;2023-04-10T15:00:00;2.10;;;1.93;;
9102;SDS011;4587;51.434;6.788;2023-04-10T15:02:27;2.20;;;2.00;;
9102;SDS011;4587;51.434;6.788;2023-04-10T15:04:54;2.30;;;2.10;;
9102;SDS011;4587;51.434;6.788;2023-04-10T15:07:20;2.67;;;2.10;;
9102;SDS011;4587;51.434;6.788;2023-04-10T15:09:46;2.10;;;1.90;;
9102;SDS011;4587;51.434;6.788;2023-04-10T15:12:11;2.00;;;1.80;;
9102;SDS011;4587;51.434;6.788;2023-04-10T15:14:37;2.40;;;2.20;;
9102;SDS011;4587;51.434;6.788;2023-04-10T15:17:03;2.03;;;1.80;;
9102;SDS011;4587;51.434;6.788;2023-04-10T15:19:28;2.30;;;2.10;;
9102;SDS011;4587;51.434;6.788;2023-04-10T15:21:56;2.60;;;1.97;;
9102;SDS011;4587;51.434;6.788;2023-04-10T15:24:22;2.27;;;2.07;;
9102;SDS011;4587;51.434;6.788;2023-04-10T15:26:48;4.17;;;2.00;;
9102;SDS011;4587;51.434;6.788;2023-04-10T15:29:13;1.97;;;1.83;;
9102;SDS011;4587;51.434;6.788;2023-04-10T15:31:39;2.70;;;2.10;;
9102;SDS011;4587;51.434;6.788;2023-04-10T15:34:05;8.03;;;4.57;;
9102;SDS011;4587;51.434;6.788;2023-04-10T15:36:31;3.50;;;3.20;;
9102;SDS011;4587;51.434;6.788;2023-04-10T15:38:57;4.90;;;3.10;;
9102;SDS011;4587;51.434;6.788;2023-04-10T15:41:29;3.20;;;2.90;;
9102;SDS011;4587;51.434;6.788;2023-04-10T15:43:57;3.37;;;2.40;;
9102;SDS011;4587;51.434;6.788;2023-04-10T15:46:23;2.40;;;2.20;;
9102;SDS011;4587;51.434;6.788;2023-04-10T15:48:49;4.67;;;2.50;;
9102;SDS011;4587;51.434;6.788;2023-04-10T15:51:15;3.20;;;2.60;;
9102;SDS011;4587;51.434;6.788;2023-04-10T15:53:41;2.37;;;2.10;;
9102;SDS011;4587;51.434;6.788;2023-04-10T15:56:06;3.30;;;3.00;;
9102;SDS011;4587;51.434;6.788;2023-04-10T15:58:32;3.97;;;3.57;;
9102;SDS011;4587;51.434;6.788;2023-04-10T16:00:58;2.80;;;2.43;;
9102;SDS011;4587;51.434;6.788;2023-04-10T16:03:24;2.63;;;2.43;;